sensor_id;sensor_type;location;lat;lon;timestamp;pressure;altitude;pressure_sealevel;temperature;humidity
74905;BME280;63465;50.862;6.220;2024-01-16T00:02:24;99250.19;;;-0.39;100.00
74905;BME280;63465;50.862;6.220;2024-01-16T00:08:28;99257.31;;;-0.47;100.00
74905;BME280;63465;50.862;6.220;2024-01-16T00:10:54;99257.16;;;-0.42;100.00
74905;BME280;63465;50.862;6.220;2024-01-16T00:13:19;99255.00;;;-0.54;100.00
74905;BME280;63465;50.862;6.220;2024-01-16T00:15:44;99256.56;;;-0.50;100.00
74905;BME280;63465;50.862;6.220;2024-01-16T00:18:09;99268.38;;;-0.43;100.00
74905;BME280;63465;50.862;6.220;2024-01-16T00:20:35;99272.47;;;-0.38;100.00
74905;BME280;63465;50.862;6.220;2024-01-16T00:23:00;99269.69;;;-0.32;100.00
74905;BME280;63465;50.862;6.220;2024-01-16T00:25:26;99271.56;;;-0.37;100.00
74905;BME280;63465;50.862;6.220;2024-01-16T00:27:51;99268.00;;;-0.33;100.00
74905;BME280;63465;50.862;6.220;2024-01-16T00:30:17;99269.75;;;-0.33;100.00
74905;BME280;63465;50.862;6.220;2024-01-16T00:32:43;99270.47;;;-0.29;100.00
74905;BME280;63465;50.862;6.220;2024-01-16T00:35:08;99269.63;;;-0.30;100.00
74905;BME280;63465;50.862;6.220;2024-01-16T00:37:35;99279.56;;;-0.19;100.00
74905;BME280;63465;50.862;6.220;2024-01-16T00:40:00;99281.97;;;-0.40;100.00
74905;BME280;63465;50.862;6.220;2024-01-16T00:42:26;99278.09;;;-0.26;100.00
74905;BME280;63465;50.862;6.220;2024-01-16T00:44:52;99283.59;;;-0.37;100.00
74905;BME280;63465;50.862;6.220;2024-01-16T00:47:17;99289.50;;;-0.34;100.00
74905;BME280;63465;50.862;6.220;2024-01-16T00:49:42;99281.41;;;-0.23;100.00
74905;BME280;63465;50.862;6.220;2024-01-16T00:52:07;99286.78;;;-0.29;100.00
74905;BME280;63465;50.862;6.220;2024-01-16T00:54:33;99287.13;;;-0.40;100.00
74905;BME280;63465;50.862;6.220;2024-01-16T00:56:58;99281.97;;;-0.40;100.00
74905;BME280;63465;50.862;6.220;2024-01-16T00:59:25;99293.28;;;-0.44;100.00
74905;BME280;63465;50.862;6.220;2024-01-16T01:01:50;99295.50;;;-0.33;100.00
74905;BME280;63465;50.862;6.220;2024-01-16T01:04:16;99295.50;;;-0.33;100.00
74905;BME280;63465;50.862;6.220;2024-01-16T01:06:41;99296.84;;;-0.48;100.00
74905;BME280;63465;50.862;6.220;2024-01-16T01:09:06;99301.91;;;-0.45;100.00
74905;BME280;63465;50.862;6.220;2024-01-16T01:11:32;99291.53;;;-0.43;100.00
74905;BME280;63465;50.862;6.220;2024-01-16T01:13:57;99304.47;;;-0.45;100.00
74905;BME280;63465;50.862;6.220;2024-01-16T01:16:22;99303.69;;;-0.47;100.00
74905;BME280;63465;50.862;6.220;2024-01-16T01:18:48;99290.94;;;-0.51;100.00
74905;BME280;63465;50.862;6.220;2024-01-16T01:21:13;99304.41;;;-0.43;100.00
74905;BME280;63465;50.862;6.220;2024-01-16T01:23:39;99303.72;;;-0.48;100.00
74905;BME280;63465;50.862;6.220;2024-01-16T01:26:04;99296.28;;;-0.57;100.00
74905;BME280;63465;50.862;6.220;2024-01-16T01:28:29;99303.03;;;-0.53;100.00
74905;BME280;63465;50.862;6.220;2024-01-16T01:30:55;99309.88;;;-0.52;100.00
74905;BME280;63465;50.862;6.220;2024-01-16T01:33:20;99312.53;;;-0.55;100.00
74905;BME280;63465;50.862;6.220;2024-01-16T01:35:46;99313.13;;;-0.47;100.00
74905;BME280;63465;50.862;6.220;2024-01-16T01:38:11;99310.56;;;-0.47;100.00
74905;BME280;63465;50.862;6.220;2024-01-16T01:40:36;99313.09;;;-0.46;100.00
74905;BME280;63465;50.862;6.220;2024-01-16T01:45:47;99311.44;;;-0.48;100.00
74905;BME280;63465;50.862;6.220;2024-01-16T01:48:16;99315.72;;;-0.47;100.00
74905;BME280;63465;50.862;6.220;2024-01-16T01:50:41;99320.91;;;-0.49;100.00
74905;BME280;63465;50.862;6.220;2024-01-16T01:53:07;99315.50;;;-0.41;100.00
74905;BME280;63465;50.862;6.220;2024-01-16T01:55:32;99321.44;;;-0.39;100.00
74905;BME280;63465;50.862;6.220;2024-01-16T01:57:58;99319.06;;;-0.45;100.00
74905;BME280;63465;50.862;6.220;2024-01-16T02:00:23;99323.13;;;-0.38;100.00
74905;BME280;63465;50.862;6.220;2024-01-16T02:02:49;99328.00;;;-0.29;100.00
74905;BME280;63465;50.862;6.220;2024-01-16T02:05:14;99326.56;;;-0.38;100.00
74905;BME280;63465;50.862;6.220;2024-01-16T02:07:40;99327.16;;;-0.29;100.00
74905;BME280;63465;50.862;6.220;2024-01-16T02:10:06;99330.63;;;-0.30;100.00
74905;BME280;63465;50.862;6.220;2024-01-16T02:12:31;99330.38;;;-0.23;100.00
74905;BME280;63465;50.862;6.220;2024-01-16T02:14:57;99333.13;;;-0.29;100.00
74905;BME280;63465;50.862;6.220;2024-01-16T02:17:22;99331.09;;;-0.19;100.00
74905;BME280;63465;50.862;6.220;2024-01-16T02:19:47;99327.03;;;-0.26;100.00
74905;BME280;63465;50.862;6.220;2024-01-16T02:22:17;99326.78;;;-0.19;100.00
74905;BME280;63465;50.862;6.220;2024-01-16T02:24:45;99329.56;;;-0.25;100.00
74905;BME280;63465;50.862;6.220;2024-01-16T02:27:10;99326.41;;;-0.33;100.00
74905;BME280;63465;50.862;6.220;2024-01-16T02:29:41;99328.78;;;-0.27;100.00
74905;BME280;63465;50.862;6.220;2024-01-16T02:32:07;99334.94;;;-0.31;100.00
74905;BME280;63465;50.862;6.220;2024-01-16T02:34:33;99330.06;;;-0.40;100.00
74905;BME280;63465;50.862;6.220;2024-01-16T02:36:58;99338.50;;;-0.35;100.00
74905;BME280;63465;50.862;6.220;2024-01-16T02:39:23;99333.88;;;-0.52;100.00
74905;BME280;63465;50.862;6.220;2024-01-16T02:41:49;99335.63;;;-0.52;100.00
74905;BME280;63465;50.862;6.220;2024-01-16T02:44:14;99335.81;;;-0.58;100.00
74905;BME280;63465;50.862;6.220;2024-01-16T02:46:39;99333.25;;;-0.58;100.00
74905;BME280;63465;50.862;6.220;2024-01-16T02:49:05;99332.44;;;-0.60;100.00
74905;BME280;63465;50.862;6.220;2024-01-16T02:51:31;99328.97;;;-0.59;100.00
74905;BME280;63465;50.862;6.220;2024-01-16T02:53:56;99326.25;;;-0.55;100.00
74905;BME280;63465;50.862;6.220;2024-01-16T02:56:22;99327.19;;;-0.57;100.00
74905;BME280;63465;50.862;6.220;2024-01-16T02:58:47;99328.03;;;-0.57;100.00
74905;BME280;63465;50.862;6.220;2024-01-16T03:01:14;99318.53;;;-0.55;100.00
74905;BME280;63465;50.862;6.220;2024-01-16T03:03:39;99324.44;;;-0.51;100.00
74905;BME280;63465;50.862;6.220;2024-01-16T03:06:04;99324.47;;;-0.53;100.00
74905;BME280;63465;50.862;6.220;2024-01-16T03:08:30;99314.75;;;-0.71;100.00
74905;BME280;63465;50.862;6.220;2024-01-16T03:10:55;99321.63;;;-0.72;100.00
74905;BME280;63465;50.862;6.220;2024-01-16T03:13:21;99319.66;;;-0.63;100.00
74905;BME280;63465;50.862;6.220;2024-01-16T03:15:47;99322.34;;;-0.67;100.00
74905;BME280;63465;50.862;6.220;2024-01-16T03:18:12;99325.47;;;-0.57;100.00
74905;BME280;63465;50.862;6.220;2024-01-16T03:20:37;99323.28;;;-0.69;100.00
74905;BME280;63465;50.862;6.220;2024-01-16T03:23:03;99325.72;;;-0.92;100.00
74905;BME280;63465;50.862;6.220;2024-01-16T03:25:29;99317.28;;;-0.98;100.00
74905;BME280;63465;50.862;6.220;2024-01-16T03:27:54;99321.69;;;-1.01;100.00
74905;BME280;63465;50.862;6.220;2024-01-16T03:30:20;99314.84;;;-1.02;100.00
74905;BME280;63465;50.862;6.220;2024-01-16T03:32:45;99317.63;;;-1.08;100.00
74905;BME280;63465;50.862;6.220;2024-01-16T03:35:10;99314.84;;;-1.02;100.00
74905;BME280;63465;50.862;6.220;2024-01-16T03:37:37;99311.34;;;-1.00;100.00
74905;BME280;63465;50.862;6.220;2024-01-16T03:40:03;99309.63;;;-0.99;100.00
74905;BME280;63465;50.862;6.220;2024-01-16T03:42:28;99310.31;;;-0.94;100.00
74905;BME280;63465;50.862;6.220;2024-01-16T03:44:53;99311.97;;;-0.91;100.00
74905;BME280;63465;50.862;6.220;2024-01-16T03:47:19;99308.50;;;-0.90;100.00
74905;BME280;63465;50.862;6.220;2024-01-16T03:49:44;99305.00;;;-0.88;100.00
74905;BME280;63465;50.862;6.220;2024-01-16T03:52:10;99299.75;;;-0.85;100.00
74905;BME280;63465;50.862;6.220;2024-01-16T03:54:35;99298.66;;;-0.78;100.00
74905;BME280;63465;50.862;6.220;2024-01-16T03:57:00;99296.19;;;-0.81;100.00
74905;BME280;63465;50.862;6.220;2024-01-16T03:59:26;99301.19;;;-0.76;100.00
74905;BME280;63465;50.862;6.220;2024-01-16T04:01:51;99298.75;;;-0.81;100.00
74905;BME280;63465;50.862;6.220;2024-01-16T04:04:17;99295.34;;;-0.81;100.00
74905;BME280;63465;50.862;6.220;2024-01-16T04:06:42;99292.13;;;-0.88;100.00
74905;BME280;63465;50.862;6.220;2024-01-16T04:09:08;99292.72;;;-0.80;100.00
74905;BME280;63465;50.862;6.220;2024-01-16T04:11:35;99295.06;;;-0.72;100.00
74905;BME280;63465;50.862;6.220;2024-01-16T04:14:00;99291.84;;;-0.79;100.00
74905;BME280;63465;50.862;6.220;2024-01-16T04:16:26;99293.66;;;-0.82;100.00
74905;BME280;63465;50.862;6.220;2024-01-16T04:18:51;99295.34;;;-0.81;100.00
74905;BME280;63465;50.862;6.220;2024-01-16T04:21:17;99298.84;;;-0.84;100.00
74905;BME280;63465;50.862;6.220;2024-01-16T04:23:42;99298.75;;;-0.81;100.00
74905;BME280;63465;50.862;6.220;2024-01-16T04:26:07;99291.09;;;-0.82;100.00
74905;BME280;63465;50.862;6.220;2024-01-16T04:28:33;99291.78;;;-0.77;100.00
74905;BME280;63465;50.862;6.220;2024-01-16T04:31:00;99292.63;;;-0.77;100.00
74905;BME280;63465;50.862;6.220;2024-01-16T04:33:25;99293.41;;;-0.75;100.00
74905;BME280;63465;50.862;6.220;2024-01-16T04:35:51;99291.00;;;-0.79;100.00
74905;BME280;63465;50.862;6.220;2024-01-16T04:38:16;99292.44;;;-0.71;100.00
74905;BME280;63465;50.862;6.220;2024-01-16T04:40:41;99292.47;;;-0.72;100.00
74905;BME280;63465;50.862;6.220;2024-01-16T04:43:06;99298.53;;;-0.73;100.00
74905;BME280;63465;50.862;6.220;2024-01-16T04:45:32;99290.84;;;-0.75;100.00
74905;BME280;63465;50.862;6.220;2024-01-16T04:47:57;99299.16;;;-0.67;100.00
74905;BME280;63465;50.862;6.220;2024-01-16T04:50:22;99290.75;;;-0.72;100.00
74905;BME280;63465;50.862;6.220;2024-01-16T04:52:48;99294.97;;;-0.69;100.00
74905;BME280;63465;50.862;6.220;2024-01-16T04:55:13;99282.38;;;-0.78;100.00
74905;BME280;63465;50.862;6.220;2024-01-16T04:57:39;99285.66;;;-0.73;100.00
74905;BME280;63465;50.862;6.220;2024-01-16T05:00:05;99293.31;;;-0.72;100.00
74905;BME280;63465;50.862;6.220;2024-01-16T05:02:32;99289.84;;;-0.71;100.00
74905;BME280;63465;50.862;6.220;2024-01-16T05:04:58;99286.53;;;-0.74;100.00
74905;BME280;63465;50.862;6.220;2024-01-16T05:07:24;99286.38;;;-0.70;100.00
74905;BME280;63465;50.862;6.220;2024-01-16T05:09:50;99283.66;;;-0.65;100.00
74905;BME280;63465;50.862;6.220;2024-01-16T05:12:15;99281.03;;;-0.63;100.00
74905;BME280;63465;50.862;6.220;2024-01-16T05:14:40;99275.91;;;-0.63;100.00
74905;BME280;63465;50.862;6.220;2024-01-16T05:17:05;99275.84;;;-0.62;100.00
74905;BME280;63465;50.862;6.220;2024-01-16T05:19:31;99279.81;;;-0.52;100.00
74905;BME280;63465;50.862;6.220;2024-01-16T05:21:56;99274.75;;;-0.55;100.00
74905;BME280;63465;50.862;6.220;2024-01-16T05:24:22;99273.22;;;-0.60;100.00
74905;BME280;63465;50.862;6.220;2024-01-16T05:26:47;99268.75;;;-0.55;100.00
74905;BME280;63465;50.862;6.220;2024-01-16T05:29:12;99265.41;;;-0.57;100.00
74905;BME280;63465;50.862;6.220;2024-01-16T05:31:41;99261.25;;;-0.61;100.00
74905;BME280;63465;50.862;6.220;2024-01-16T05:34:07;99265.41;;;-0.57;100.00
74905;BME280;63465;50.862;6.220;2024-01-16T05:36:32;99257.03;;;-0.64;100.00
74905;BME280;63465;50.862;6.220;2024-01-16T05:38:58;99253.72;;;-0.68;100.00
74905;BME280;63465;50.862;6.220;2024-01-16T05:41:23;99250.34;;;-0.70;100.00
74905;BME280;63465;50.862;6.220;2024-01-16T05:43:48;99256.44;;;-0.72;100.00
74905;BME280;63465;50.862;6.220;2024-01-16T05:46:14;99255.56;;;-0.71;100.00
74905;BME280;63465;50.862;6.220;2024-01-16T05:48:39;99253.81;;;-0.71;100.00
74905;BME280;63465;50.862;6.220;2024-01-16T05:51:04;99253.06;;;-0.74;100.00
74905;BME280;63465;50.862;6.220;2024-01-16T05:53:30;99251.44;;;-0.77;100.00
74905;BME280;63465;50.862;6.220;2024-01-16T05:55:55;99251.50;;;-0.78;100.00
74905;BME280;63465;50.862;6.220;2024-01-16T05:58:21;99248.06;;;-0.79;100.00
74905;BME280;63465;50.862;6.220;2024-01-16T06:00:47;99249.06;;;-0.83;100.00
74905;BME280;63465;50.862;6.220;2024-01-16T06:03:12;99251.88;;;-0.90;100.00
74905;BME280;63465;50.862;6.220;2024-01-16T06:05:37;99253.75;;;-0.95;100.00
74905;BME280;63465;50.862;6.220;2024-01-16T06:08:03;99253.91;;;-1.00;100.00
74905;BME280;63465;50.862;6.220;2024-01-16T06:10:28;99261.72;;;-1.03;100.00
74905;BME280;63465;50.862;6.220;2024-01-16T06:12:53;99254.00;;;-1.03;100.00
74905;BME280;63465;50.862;6.220;2024-01-16T06:15:18;99254.25;;;-1.11;100.00
74905;BME280;63465;50.862;6.220;2024-01-16T06:17:44;99259.16;;;-1.03;100.00
74905;BME280;63465;50.862;6.220;2024-01-16T06:20:09;99252.66;;;-1.15;100.00
74905;BME280;63465;50.862;6.220;2024-01-16T06:22:35;99257.84;;;-1.16;100.00
74905;BME280;63465;50.862;6.220;2024-01-16T06:25:00;99255.53;;;-1.25;100.00
74905;BME280;63465;50.862;6.220;2024-01-16T06:27:27;99255.78;;;-1.33;100.00
74905;BME280;63465;50.862;6.220;2024-01-16T06:29:52;99266.06;;;-1.33;100.00
74905;BME280;63465;50.862;6.220;2024-01-16T06:32:18;99267.97;;;-1.40;100.00
74905;BME280;63465;50.862;6.220;2024-01-16T06:34:43;99271.00;;;-1.55;100.00
74905;BME280;63465;50.862;6.220;2024-01-16T06:37:08;99278.00;;;-1.60;100.00
74905;BME280;63465;50.862;6.220;2024-01-16T06:39:34;99276.44;;;-1.66;100.00
74905;BME280;63465;50.862;6.220;2024-01-16T06:41:59;99276.88;;;-1.81;100.00
74905;BME280;63465;50.862;6.220;2024-01-16T06:44:25;99280.44;;;-1.86;100.00
74905;BME280;63465;50.862;6.220;2024-01-16T06:46:50;99272.16;;;-1.96;100.00
74905;BME280;63465;50.862;6.220;2024-01-16T06:49:15;99285.19;;;-2.04;100.00
74905;BME280;63465;50.862;6.220;2024-01-16T06:51:40;99274.97;;;-2.05;100.00
74905;BME280;63465;50.862;6.220;2024-01-16T06:54:06;99272.59;;;-2.13;100.00
74905;BME280;63465;50.862;6.220;2024-01-16T06:56:32;99275.13;;;-2.11;100.00
74905;BME280;63465;50.862;6.220;2024-01-16T06:58:57;99273.72;;;-2.23;100.00
74905;BME280;63465;50.862;6.220;2024-01-16T07:01:22;99286.59;;;-2.24;100.00
74905;BME280;63465;50.862;6.220;2024-01-16T07:03:48;99283.28;;;-2.28;100.00
74905;BME280;63465;50.862;6.220;2024-01-16T07:06:13;99280.78;;;-2.31;100.00
74905;BME280;63465;50.862;6.220;2024-01-16T07:08:39;99277.28;;;-2.29;100.00
74905;BME280;63465;50.862;6.220;2024-01-16T07:11:04;99281.78;;;-2.37;100.00
74905;BME280;63465;50.862;6.220;2024-01-16T07:13:33;99291.25;;;-2.39;100.00
74905;BME280;63465;50.862;6.220;2024-01-16T07:15:59;99288.88;;;-2.46;100.00
74905;BME280;63465;50.862;6.220;2024-01-16T07:18:24;99282.41;;;-2.63;100.00
74905;BME280;63465;50.862;6.220;2024-01-16T07:20:49;99289.25;;;-2.63;100.00
74905;BME280;63465;50.862;6.220;2024-01-16T07:23:15;99294.47;;;-2.66;100.00
74905;BME280;63465;50.862;6.220;2024-01-16T07:25:40;99303.78;;;-2.62;100.00
74905;BME280;63465;50.862;6.220;2024-01-16T07:28:06;99298.75;;;-2.67;100.00
74905;BME280;63465;50.862;6.220;2024-01-16T07:30:31;99297.91;;;-2.67;100.00
74905;BME280;63465;50.862;6.220;2024-01-16T07:32:56;99305.94;;;-2.81;100.00
74905;BME280;63465;50.862;6.220;2024-01-16T07:35:21;99308.16;;;-2.67;100.00
74905;BME280;63465;50.862;6.220;2024-01-16T07:37:47;99308.28;;;-2.72;100.00
74905;BME280;63465;50.862;6.220;2024-01-16T07:40:12;99304.84;;;-2.71;100.00
74905;BME280;63465;50.862;6.220;2024-01-16T07:42:37;99301.41;;;-2.71;100.00
74905;BME280;63465;50.862;6.220;2024-01-16T07:45:03;99304.88;;;-2.72;100.00
74905;BME280;63465;50.862;6.220;2024-01-16T07:47:30;99297.81;;;-2.64;100.00
74905;BME280;63465;50.862;6.220;2024-01-16T07:49:56;99296.38;;;-2.74;100.00
74905;BME280;63465;50.862;6.220;2024-01-16T07:52:22;99307.31;;;-2.68;100.00
74905;BME280;63465;50.862;6.220;2024-01-16T07:54:47;99303.88;;;-2.67;100.00
74905;BME280;63465;50.862;6.220;2024-01-16T07:57:12;99301.38;;;-2.70;100.00
74905;BME280;63465;50.862;6.220;2024-01-16T07:59:37;99313.25;;;-2.66;100.00
74905;BME280;63465;50.862;6.220;2024-01-16T08:02:03;99303.09;;;-2.70;100.00
74905;BME280;63465;50.862;6.220;2024-01-16T08:04:30;99301.25;;;-2.64;100.00
74905;BME280;63465;50.862;6.220;2024-01-16T08:06:55;99295.22;;;-2.63;100.00
74905;BME280;63465;50.862;6.220;2024-01-16T08:09:20;99296.91;;;-2.62;100.00
74905;BME280;63465;50.862;6.220;2024-01-16T08:11:46;99302.03;;;-2.62;100.00
74905;BME280;63465;50.862;6.220;2024-01-16T08:14:11;99301.16;;;-2.59;100.00
74905;BME280;63465;50.862;6.220;2024-01-16T08:16:36;99306.22;;;-2.56;100.00
74905;BME280;63465;50.862;6.220;2024-01-16T08:19:02;99305.44;;;-2.60;100.00
74905;BME280;63465;50.862;6.220;2024-01-16T08:21:28;99318.34;;;-2.64;100.00
74905;BME280;63465;50.862;6.220;2024-01-16T08:23:54;99324.25;;;-2.61;100.00
74905;BME280;63465;50.862;6.220;2024-01-16T08:26:19;99326.13;;;-2.67;100.00
74905;BME280;63465;50.862;6.220;2024-01-16T08:28:44;99330.31;;;-2.63;100.00
74905;BME280;63465;50.862;6.220;2024-01-16T08:31:09;99331.16;;;-2.63;100.00
74905;BME280;63465;50.862;6.220;2024-01-16T08:33:35;99337.13;;;-2.62;100.00
74905;BME280;63465;50.862;6.220;2024-01-16T08:36:00;99337.19;;;-2.65;100.00
74905;BME280;63465;50.862;6.220;2024-01-16T08:38:25;99330.78;;;-2.46;100.00
74905;BME280;63465;50.862;6.220;2024-01-16T08:40:51;99335.03;;;-2.45;100.00
74905;BME280;63465;50.862;6.220;2024-01-16T08:43:16;99333.34;;;-2.46;100.00
74905;BME280;63465;50.862;6.220;2024-01-16T08:45:41;99322.16;;;-2.43;100.00
74905;BME280;63465;50.862;6.220;2024-01-16T08:48:07;99309.09;;;-2.34;100.00
74905;BME280;63465;50.862;6.220;2024-01-16T08:50:32;99318.41;;;-2.30;100.00
74905;BME280;63465;50.862;6.220;2024-01-16T08:52:57;99306.16;;;-2.19;100.00
74905;BME280;63465;50.862;6.220;2024-01-16T08:55:23;99317.25;;;-2.18;100.00
74905;BME280;63465;50.862;6.220;2024-01-16T08:57:48;99321.41;;;-2.13;100.00
74905;BME280;63465;50.862;6.220;2024-01-16T09:00:13;99315.63;;;-2.21;100.00
74905;BME280;63465;50.862;6.220;2024-01-16T09:02:40;99319.50;;;-2.06;100.00
74905;BME280;63465;50.862;6.220;2024-01-16T09:05:06;99311.41;;;-1.91;100.00
74905;BME280;63465;50.862;6.220;2024-01-16T09:07:31;99320.00;;;-1.92;100.00
74905;BME280;63465;50.862;6.220;2024-01-16T09:09:56;99317.13;;;-1.81;100.00
74905;BME280;63465;50.862;6.220;2024-01-16T09:12:22;99327.97;;;-1.70;100.00
74905;BME280;63465;50.862;6.220;2024-01-16T09:14:47;99335.31;;;-1.56;100.00
74905;BME280;63465;50.862;6.220;2024-01-16T09:17:12;99332.78;;;-1.58;100.00
74905;BME280;63465;50.862;6.220;2024-01-16T09:19:38;99325.78;;;-1.53;100.00
74905;BME280;63465;50.862;6.220;2024-01-16T09:22:03;99323.44;;;-1.31;100.00
74905;BME280;63465;50.862;6.220;2024-01-16T09:24:29;99328.50;;;-1.28;100.00
74905;BME280;63465;50.862;6.220;2024-01-16T09:26:54;99331.69;;;-1.20;100.00
74905;BME280;63465;50.862;6.220;2024-01-16T09:29:19;99329.81;;;-1.15;100.00
74905;BME280;63465;50.862;6.220;2024-01-16T09:31:46;99325.38;;;-1.10;100.00
74905;BME280;63465;50.862;6.220;2024-01-16T09:34:11;99316.06;;;-1.14;100.00
74905;BME280;63465;50.862;6.220;2024-01-16T09:36:38;99315.94;;;-1.09;100.00
74905;BME280;63465;50.862;6.220;2024-01-16T09:39:05;99321.69;;;-1.01;100.00
74905;BME280;63465;50.862;6.220;2024-01-16T09:41:34;99326.59;;;-0.93;100.00
74905;BME280;63465;50.862;6.220;2024-01-16T09:44:00;99318.72;;;-0.61;100.00
74905;BME280;63465;50.862;6.220;2024-01-16T09:46:25;99317.09;;;-0.91;100.00
74905;BME280;63465;50.862;6.220;2024-01-16T09:48:54;99317.19;;;-0.94;100.00
74905;BME280;63465;50.862;6.220;2024-01-16T09:51:21;99311.03;;;-0.89;100.00
74905;BME280;63465;50.862;6.220;2024-01-16T09:53:46;99311.53;;;-1.06;100.00
74905;BME280;63465;50.862;6.220;2024-01-16T09:56:14;99300.91;;;-0.95;100.00
74905;BME280;63465;50.862;6.220;2024-01-16T09:58:43;99294.22;;;-1.01;100.00
74905;BME280;63465;50.862;6.220;2024-01-16T10:01:11;99290.44;;;-0.89;100.00
74905;BME280;63465;50.862;6.220;2024-01-16T10:03:37;99296.72;;;-0.98;100.00
74905;BME280;63465;50.862;6.220;2024-01-16T10:06:04;99291.19;;;-0.85;100.00
74905;BME280;63465;50.862;6.220;2024-01-16T10:08:31;99285.78;;;-0.78;100.00
74905;BME280;63465;50.862;6.220;2024-01-16T10:10:57;99289.75;;;-0.41;100.00
74905;BME280;63465;50.862;6.220;2024-01-16T10:13:22;99273.81;;;-0.52;100.00
74905;BME280;63465;50.862;6.220;2024-01-16T10:15:50;99271.78;;;-0.69;100.00
74905;BME280;63465;50.862;6.220;2024-01-16T10:18:28;99277.72;;;-0.67;100.00
74905;BME280;63465;50.862;6.220;2024-01-16T10:20:55;99275.16;;;-0.67;100.00
74905;BME280;63465;50.862;6.220;2024-01-16T10:23:29;99267.31;;;-0.90;100.00
74905;BME280;63465;50.862;6.220;2024-01-16T10:28:32;99259.16;;;-0.77;100.00
74905;BME280;63465;50.862;6.220;2024-01-16T10:31:09;99255.66;;;-0.74;100.00
74905;BME280;63465;50.862;6.220;2024-01-16T10:33:35;99251.97;;;-0.93;100.00
74905;BME280;63465;50.862;6.220;2024-01-16T10:38:37;99259.09;;;-0.49;100.00
74905;BME280;63465;50.862;6.220;2024-01-16T10:43:34;99260.03;;;-0.51;100.00
74905;BME280;63465;50.862;6.220;2024-01-16T10:46:18;99258.44;;;-0.29;100.00
74905;BME280;63465;50.862;6.220;2024-01-16T10:49:03;99255.75;;;-0.26;100.00
74905;BME280;63465;50.862;6.220;2024-01-16T10:51:30;99257.00;;;-0.13;100.00
74905;BME280;63465;50.862;6.220;2024-01-16T10:53:59;99267.97;;;0.19;100.00
74905;BME280;63465;50.862;6.220;2024-01-16T10:56:27;99252.06;;;1.20;91.58
74905;BME280;63465;50.862;6.220;2024-01-16T10:59:19;99253.91;;;1.38;89.61
74905;BME280;63465;50.862;6.220;2024-01-16T11:01:49;99251.06;;;1.44;87.93
74905;BME280;63465;50.862;6.220;2024-01-16T11:04:17;99253.38;;;1.30;85.56
74905;BME280;63465;50.862;6.220;2024-01-16T11:06:43;99238.81;;;1.70;81.88
74905;BME280;63465;50.862;6.220;2024-01-16T11:09:09;99244.25;;;2.23;80.01
74905;BME280;63465;50.862;6.220;2024-01-16T11:11:34;99246.25;;;1.57;82.47
74905;BME280;63465;50.862;6.220;2024-01-16T11:14:03;99239.50;;;2.33;76.12
74905;BME280;63465;50.862;6.220;2024-01-16T11:16:28;99248.03;;;2.16;79.58
74905;BME280;63465;50.862;6.220;2024-01-16T11:18:57;99240.38;;;2.71;77.30
74905;BME280;63465;50.862;6.220;2024-01-16T11:21:22;99245.50;;;2.72;76.40
74905;BME280;63465;50.862;6.220;2024-01-16T11:23:48;99251.25;;;3.15;74.06
74905;BME280;63465;50.862;6.220;2024-01-16T11:26:37;99248.56;;;2.80;73.19
74905;BME280;63465;50.862;6.220;2024-01-16T11:31:51;99246.19;;;2.76;74.61
74905;BME280;63465;50.862;6.220;2024-01-16T11:37:08;99227.34;;;2.53;76.79
74905;BME280;63465;50.862;6.220;2024-01-16T11:39:35;99226.47;;;2.73;71.63
74905;BME280;63465;50.862;6.220;2024-01-16T11:42:00;99230.00;;;3.43;71.17
74905;BME280;63465;50.862;6.220;2024-01-16T11:44:43;99212.28;;;2.99;72.94
74905;BME280;63465;50.862;6.220;2024-01-16T11:47:09;99212.31;;;3.16;72.50
74905;BME280;63465;50.862;6.220;2024-01-16T11:49:40;99215.59;;;2.46;74.62
74905;BME280;63465;50.862;6.220;2024-01-16T11:52:05;99215.28;;;3.78;70.71
74905;BME280;63465;50.862;6.220;2024-01-16T11:54:32;99212.22;;;4.20;68.70
74905;BME280;63465;50.862;6.220;2024-01-16T11:59:42;99207.56;;;4.42;68.41
74905;BME280;63465;50.862;6.220;2024-01-16T12:02:21;99217.44;;;3.70;70.30
74905;BME280;63465;50.862;6.220;2024-01-16T12:04:53;99217.13;;;3.24;73.28
74905;BME280;63465;50.862;6.220;2024-01-16T12:07:21;99208.88;;;3.68;72.63
74905;BME280;63465;50.862;6.220;2024-01-16T12:09:46;99204.16;;;3.07;70.82
74905;BME280;63465;50.862;6.220;2024-01-16T12:12:15;99206.44;;;2.20;78.07
74905;BME280;63465;50.862;6.220;2024-01-16T12:14:40;99206.50;;;1.39;80.67
74905;BME280;63465;50.862;6.220;2024-01-16T12:17:12;99194.84;;;2.48;76.04
74905;BME280;63465;50.862;6.220;2024-01-16T12:19:37;99192.66;;;2.20;75.33
74905;BME280;63465;50.862;6.220;2024-01-16T12:22:07;99177.63;;;2.47;75.37
74905;BME280;63465;50.862;6.220;2024-01-16T12:24:33;99179.09;;;2.15;75.84
74905;BME280;63465;50.862;6.220;2024-01-16T12:26:58;99177.97;;;2.77;75.09
74905;BME280;63465;50.862;6.220;2024-01-16T12:29:23;99168.03;;;2.49;74.46
74905;BME280;63465;50.862;6.220;2024-01-16T12:31:49;99171.06;;;2.02;77.02
74905;BME280;63465;50.862;6.220;2024-01-16T12:34:14;99164.34;;;2.73;72.35
74905;BME280;63465;50.862;6.220;2024-01-16T12:36:39;99156.97;;;2.83;73.62
74905;BME280;63465;50.862;6.220;2024-01-16T12:39:05;99159.13;;;1.79;76.51
74905;BME280;63465;50.862;6.220;2024-01-16T12:41:37;99148.84;;;3.25;71.44
74905;BME280;63465;50.862;6.220;2024-01-16T12:44:06;99155.81;;;2.71;72.19
74905;BME280;63465;50.862;6.220;2024-01-16T12:46:31;99150.97;;;3.00;73.48
74905;BME280;63465;50.862;6.220;2024-01-16T12:49:01;99137.69;;;2.52;70.85
74905;BME280;63465;50.862;6.220;2024-01-16T12:51:27;99146.72;;;2.06;76.03
74905;BME280;63465;50.862;6.220;2024-01-16T12:53:53;99147.97;;;1.98;79.22
74905;BME280;63465;50.862;6.220;2024-01-16T12:56:20;99153.59;;;1.68;78.69
74905;BME280;63465;50.862;6.220;2024-01-16T12:58:48;99144.41;;;1.81;77.98
74905;BME280;63465;50.862;6.220;2024-01-16T13:01:27;99140.22;;;2.35;75.51
74905;BME280;63465;50.862;6.220;2024-01-16T13:03:54;99137.19;;;2.99;73.16
74905;BME280;63465;50.862;6.220;2024-01-16T13:06:21;99132.03;;;2.63;75.25
74905;BME280;63465;50.862;6.220;2024-01-16T13:08:47;99133.28;;;3.25;71.23
74905;BME280;63465;50.862;6.220;2024-01-16T13:11:13;99137.47;;;2.57;74.99